sensor_id;sensor_type;location;lat;lon;timestamp;P1;durP1;ratioP1;P2;durP2;ratioP2
12970;SDS011;6550;48.650;8.774;2023-07-24T00:00:36;6.23;;;4.90;;
12970;SDS011;6550;48.650;8.774;2023-07-24T00:03:02;7.00;;;5.32;;
12970;SDS011;6550;48.650;8.774;2023-07-24T00:05:29;6.43;;;5.27;;
12970;SDS011;6550;48.650;8.774;2023-07-24T00:07:56;6.47;;;4.93;;
12970;SDS011;6550;48.650;8.774;2023-07-24T00:10:25;6.03;;;4.70;;
12970;SDS011;6550;48.650;8.774;2023-07-24T00:12:54;7.37;;;4.53;;
12970;SDS011;6550;48.650;8.774;2023-07-24T00:15:21;6.57;;;4.90;;
12970;SDS011;6550;48.650;8.774;2023-07-24T00:17:48;4.90;;;4.30;;
12970;SDS011;6550;48.650;8.774;2023-07-24T00:20:17;7.13;;;4.70;;
12970;SDS011;6550;48.650;8.774;2023-07-24T00:22:44;8.68;;;5.20;;
12970;SDS011;6550;48.650;8.774;2023-07-24T00:25:13;7.00;;;5.10;;
12970;SDS011;6550;48.650;8.774;2023-07-24T00:27:39;9.63;;;4.93;;
12970;SDS011;6550;48.650;8.774;2023-07-24T00:30:08;6.13;;;4.53;;
12970;SDS011;6550;48.650;8.774;2023-07-24T00:32:35;6.30;;;4.77;;
12970;SDS011;6550;48.650;8.774;2023-07-24T00:35:03;10.10;;;5.10;;
12970;SDS011;6550;48.650;8.774;2023-07-24T00:37:30;7.43;;;4.93;;
12970;SDS011;6550;48.650;8.774;2023-07-24T00:40:01;6.87;;;5.23;;
12970;SDS011;6550;48.650;8.774;2023-07-24T00:42:29;8.37;;;5.13;;
12970;SDS011;6550;48.650;8.774;2023-07-24T00:44:56;6.23;;;4.83;;
12970;SDS011;6550;48.650;8.774;2023-07-24T00:47:23;8.13;;;5.17;;
12970;SDS011;6550;48.650;8.774;2023-07-24T00:49:53;5.37;;;4.60;;
12970;SDS011;6550;48.650;8.774;2023-07-24T00:52:21;7.50;;;5.27;;
12970;SDS011;6550;48.650;8.774;2023-07-24T00:54:48;5.67;;;4.90;;
12970;SDS011;6550;48.650;8.774;2023-07-24T00:57:18;10.13;;;4.97;;
12970;SDS011;6550;48.650;8.774;2023-07-24T00:59:46;8.20;;;5.00;;
12970;SDS011;6550;48.650;8.774;2023-07-24T01:02:15;6.00;;;4.80;;
12970;SDS011;6550;48.650;8.774;2023-07-24T01:04:42;5.82;;;5.22;;
12970;SDS011;6550;48.650;8.774;2023-07-24T01:07:09;6.70;;;4.93;;
12970;SDS011;6550;48.650;8.774;2023-07-24T01:09:36;8.07;;;4.90;;
12970;SDS011;6550;48.650;8.774;2023-07-24T01:12:17;6.00;;;4.73;;
12970;SDS011;6550;48.650;8.774;2023-07-24T01:14:55;6.97;;;4.97;;
12970;SDS011;6550;48.650;8.774;2023-07-24T01:17:29;5.10;;;4.60;;
12970;SDS011;6550;48.650;8.774;2023-07-24T01:20:00;6.80;;;4.97;;
12970;SDS011;6550;48.650;8.774;2023-07-24T01:25:00;6.23;;;4.60;;
12970;SDS011;6550;48.650;8.774;2023-07-24T01:27:31;6.17;;;4.80;;
12970;SDS011;6550;48.650;8.774;2023-07-24T01:29:57;8.30;;;5.30;;
12970;SDS011;6550;48.650;8.774;2023-07-24T01:32:24;7.30;;;4.97;;
12970;SDS011;6550;48.650;8.774;2023-07-24T01:34:52;5.80;;;4.47;;
12970;SDS011;6550;48.650;8.774;2023-07-24T01:37:20;7.60;;;5.40;;
12970;SDS011;6550;48.650;8.774;2023-07-24T01:39:53;8.20;;;5.30;;
12970;SDS011;6550;48.650;8.774;2023-07-24T01:42:22;6.67;;;4.73;;
12970;SDS011;6550;48.650;8.774;2023-07-24T01:44:52;5.90;;;5.27;;
12970;SDS011;6550;48.650;8.774;2023-07-24T01:47:22;5.77;;;5.17;;
12970;SDS011;6550;48.650;8.774;2023-07-24T01:49:49;6.27;;;5.00;;
12970;SDS011;6550;48.650;8.774;2023-07-24T01:52:19;5.73;;;4.80;;
12970;SDS011;6550;48.650;8.774;2023-07-24T01:54:45;7.35;;;5.07;;
12970;SDS011;6550;48.650;8.774;2023-07-24T01:57:14;6.13;;;4.87;;
12970;SDS011;6550;48.650;8.774;2023-07-24T01:59:41;7.33;;;5.23;;
12970;SDS011;6550;48.650;8.774;2023-07-24T02:02:12;6.97;;;4.83;;
12970;SDS011;6550;48.650;8.774;2023-07-24T02:04:41;7.93;;;5.33;;
12970;SDS011;6550;48.650;8.774;2023-07-24T02:07:11;6.10;;;5.07;;
12970;SDS011;6550;48.650;8.774;2023-07-24T02:09:40;7.70;;;4.70;;
12970;SDS011;6550;48.650;8.774;2023-07-24T02:12:09;6.83;;;5.17;;
12970;SDS011;6550;48.650;8.774;2023-07-24T02:14:35;6.03;;;4.23;;
12970;SDS011;6550;48.650;8.774;2023-07-24T02:17:05;8.87;;;5.63;;
12970;SDS011;6550;48.650;8.774;2023-07-24T02:19:32;6.80;;;4.77;;
12970;SDS011;6550;48.650;8.774;2023-07-24T02:21:58;7.87;;;5.43;;
12970;SDS011;6550;48.650;8.774;2023-07-24T02:24:25;9.10;;;4.83;;
12970;SDS011;6550;48.650;8.774;2023-07-24T02:26:52;6.75;;;5.22;;
12970;SDS011;6550;48.650;8.774;2023-07-24T02:29:21;5.80;;;4.60;;
12970;SDS011;6550;48.650;8.774;2023-07-24T02:31:49;6.83;;;4.80;;
12970;SDS011;6550;48.650;8.774;2023-07-24T02:34:16;6.27;;;5.10;;
12970;SDS011;6550;48.650;8.774;2023-07-24T02:36:43;4.93;;;4.37;;
12970;SDS011;6550;48.650;8.774;2023-07-24T02:39:12;5.65;;;4.97;;
12970;SDS011;6550;48.650;8.774;2023-07-24T02:41:41;7.93;;;5.30;;
12970;SDS011;6550;48.650;8.774;2023-07-24T02:44:08;5.70;;;4.60;;
12970;SDS011;6550;48.650;8.774;2023-07-24T02:46:40;6.47;;;4.90;;
12970;SDS011;6550;48.650;8.774;2023-07-24T02:49:07;11.50;;;5.37;;
12970;SDS011;6550;48.650;8.774;2023-07-24T02:51:36;8.63;;;5.00;;
12970;SDS011;6550;48.650;8.774;2023-07-24T02:54:06;6.07;;;4.83;;
12970;SDS011;6550;48.650;8.774;2023-07-24T02:56:35;9.57;;;5.20;;
12970;SDS011;6550;48.650;8.774;2023-07-24T02:59:02;6.67;;;5.10;;
12970;SDS011;6550;48.650;8.774;2023-07-24T03:01:29;6.50;;;4.83;;
12970;SDS011;6550;48.650;8.774;2023-07-24T03:03:55;6.93;;;4.93;;
12970;SDS011;6550;48.650;8.774;2023-07-24T03:06:22;6.10;;;4.83;;
12970;SDS011;6550;48.650;8.774;2023-07-24T03:08:49;7.60;;;5.13;;
12970;SDS011;6550;48.650;8.774;2023-07-24T03:11:16;6.10;;;4.60;;
12970;SDS011;6550;48.650;8.774;2023-07-24T03:13:45;6.20;;;5.03;;
12970;SDS011;6550;48.650;8.774;2023-07-24T03:16:12;6.80;;;4.93;;
12970;SDS011;6550;48.650;8.774;2023-07-24T03:18:43;7.70;;;4.73;;
12970;SDS011;6550;48.650;8.774;2023-07-24T03:21:10;7.50;;;5.30;;
12970;SDS011;6550;48.650;8.774;2023-07-24T03:23:37;7.87;;;5.23;;
12970;SDS011;6550;48.650;8.774;2023-07-24T03:26:04;8.10;;;4.83;;
12970;SDS011;6550;48.650;8.774;2023-07-24T03:28:31;6.97;;;5.00;;
12970;SDS011;6550;48.650;8.774;2023-07-24T03:31:00;5.47;;;4.80;;
12970;SDS011;6550;48.650;8.774;2023-07-24T03:33:27;6.97;;;5.00;;
12970;SDS011;6550;48.650;8.774;2023-07-24T03:35:54;6.70;;;5.10;;
12970;SDS011;6550;48.650;8.774;2023-07-24T03:38:23;5.70;;;4.93;;
12970;SDS011;6550;48.650;8.774;2023-07-24T03:40:50;6.60;;;4.93;;
12970;SDS011;6550;48.650;8.774;2023-07-24T03:43:19;6.60;;;5.28;;
12970;SDS011;6550;48.650;8.774;2023-07-24T03:45:51;6.53;;;5.03;;
12970;SDS011;6550;48.650;8.774;2023-07-24T03:48:18;7.30;;;5.13;;
12970;SDS011;6550;48.650;8.774;2023-07-24T03:50:47;7.30;;;5.23;;
12970;SDS011;6550;48.650;8.774;2023-07-24T03:53:18;6.47;;;4.70;;
12970;SDS011;6550;48.650;8.774;2023-07-24T03:55:45;7.00;;;5.20;;
12970;SDS011;6550;48.650;8.774;2023-07-24T03:58:14;6.67;;;5.30;;
12970;SDS011;6550;48.650;8.774;2023-07-24T04:00:43;6.13;;;5.18;;
12970;SDS011;6550;48.650;8.774;2023-07-24T04:03:10;7.67;;;4.57;;
12970;SDS011;6550;48.650;8.774;2023-07-24T04:05:37;5.83;;;4.90;;
12970;SDS011;6550;48.650;8.774;2023-07-24T04:08:06;7.77;;;5.20;;
12970;SDS011;6550;48.650;8.774;2023-07-24T04:10:33;5.83;;;4.83;;
12970;SDS011;6550;48.650;8.774;2023-07-24T04:13:00;6.23;;;4.90;;
12970;SDS011;6550;48.650;8.774;2023-07-24T04:15:31;8.05;;;5.25;;
12970;SDS011;6550;48.650;8.774;2023-07-24T04:17:58;6.33;;;5.40;;
12970;SDS011;6550;48.650;8.774;2023-07-24T04:20:28;5.40;;;4.80;;
12970;SDS011;6550;48.650;8.774;2023-07-24T04:22:57;8.70;;;4.87;;
12970;SDS011;6550;48.650;8.774;2023-07-24T04:25:24;6.87;;;4.80;;
12970;SDS011;6550;48.650;8.774;2023-07-24T04:27:50;8.97;;;5.57;;
12970;SDS011;6550;48.650;8.774;2023-07-24T04:30:20;8.77;;;5.07;;
12970;SDS011;6550;48.650;8.774;2023-07-24T04:32:49;6.93;;;5.43;;
12970;SDS011;6550;48.650;8.774;2023-07-24T04:35:17;6.57;;;4.90;;
12970;SDS011;6550;48.650;8.774;2023-07-24T04:37:46;8.57;;;5.30;;
12970;SDS011;6550;48.650;8.774;2023-07-24T04:40:12;7.30;;;4.40;;
12970;SDS011;6550;48.650;8.774;2023-07-24T04:42:39;7.80;;;5.77;;
12970;SDS011;6550;48.650;8.774;2023-07-24T04:45:06;7.30;;;5.10;;
12970;SDS011;6550;48.650;8.774;2023-07-24T04:47:33;8.52;;;5.72;;
12970;SDS011;6550;48.650;8.774;2023-07-24T04:50:03;8.13;;;5.17;;
12970;SDS011;6550;48.650;8.774;2023-07-24T04:52:30;6.00;;;5.10;;
12970;SDS011;6550;48.650;8.774;2023-07-24T04:54:57;6.27;;;4.80;;
12970;SDS011;6550;48.650;8.774;2023-07-24T04:57:26;8.40;;;5.10;;
12970;SDS011;6550;48.650;8.774;2023-07-24T04:59:53;6.10;;;4.87;;
12970;SDS011;6550;48.650;8.774;2023-07-24T05:02:22;5.77;;;4.90;;
12970;SDS011;6550;48.650;8.774;2023-07-24T05:04:51;7.65;;;5.68;;
12970;SDS011;6550;48.650;8.774;2023-07-24T05:07:20;6.30;;;4.97;;
12970;SDS011;6550;48.650;8.774;2023-07-24T05:09:47;8.17;;;5.30;;
12970;SDS011;6550;48.650;8.774;2023-07-24T05:12:13;6.63;;;4.63;;
12970;SDS011;6550;48.650;8.774;2023-07-24T05:14:40;8.30;;;5.40;;
12970;SDS011;6550;48.650;8.774;2023-07-24T05:17:07;5.63;;;5.03;;
12970;SDS011;6550;48.650;8.774;2023-07-24T05:19:34;9.43;;;5.60;;
12970;SDS011;6550;48.650;8.774;2023-07-24T05:22:00;6.83;;;5.07;;
12970;SDS011;6550;48.650;8.774;2023-07-24T05:24:27;6.23;;;5.00;;
12970;SDS011;6550;48.650;8.774;2023-07-24T05:26:54;5.90;;;5.23;;
12970;SDS011;6550;48.650;8.774;2023-07-24T05:29:21;4.93;;;4.43;;
12970;SDS011;6550;48.650;8.774;2023-07-24T05:31:51;8.63;;;5.40;;
12970;SDS011;6550;48.650;8.774;2023-07-24T05:34:20;5.77;;;4.97;;
12970;SDS011;6550;48.650;8.774;2023-07-24T05:36:48;7.27;;;5.27;;
12970;SDS011;6550;48.650;8.774;2023-07-24T05:39:15;8.03;;;5.50;;
12970;SDS011;6550;48.650;8.774;2023-07-24T05:41:42;6.53;;;5.27;;
12970;SDS011;6550;48.650;8.774;2023-07-24T05:44:09;6.50;;;5.43;;
12970;SDS011;6550;48.650;8.774;2023-07-24T05:46:38;6.47;;;4.83;;
12970;SDS011;6550;48.650;8.774;2023-07-24T05:49:04;6.70;;;5.27;;
12970;SDS011;6550;48.650;8.774;2023-07-24T05:51:34;8.63;;;5.40;;
12970;SDS011;6550;48.650;8.774;2023-07-24T05:54:01;7.23;;;5.03;;
12970;SDS011;6550;48.650;8.774;2023-07-24T05:56:27;7.27;;;5.07;;
12970;SDS011;6550;48.650;8.774;2023-07-24T05:58:55;8.27;;;5.23;;
12970;SDS011;6550;48.650;8.774;2023-07-24T06:01:22;8.83;;;5.67;;
12970;SDS011;6550;48.650;8.774;2023-07-24T06:03:51;10.13;;;5.77;;
12970;SDS011;6550;48.650;8.774;2023-07-24T06:06:20;9.60;;;5.43;;
12970;SDS011;6550;48.650;8.774;2023-07-24T06:08:47;7.43;;;6.00;;
12970;SDS011;6550;48.650;8.774;2023-07-24T06:11:17;9.73;;;5.90;;
12970;SDS011;6550;48.650;8.774;2023-07-24T06:13:44;8.07;;;5.70;;
12970;SDS011;6550;48.650;8.774;2023-07-24T06:16:10;7.97;;;5.60;;
12970;SDS011;6550;48.650;8.774;2023-07-24T06:18:42;7.03;;;5.60;;
12970;SDS011;6550;48.650;8.774;2023-07-24T06:21:14;7.60;;;5.80;;
12970;SDS011;6550;48.650;8.774;2023-07-24T06:23:41;8.00;;;5.88;;
12970;SDS011;6550;48.650;8.774;2023-07-24T06:26:10;7.13;;;6.00;;
12970;SDS011;6550;48.650;8.774;2023-07-24T06:28:37;7.67;;;5.67;;
12970;SDS011;6550;48.650;8.774;2023-07-24T06:31:03;10.13;;;5.80;;
12970;SDS011;6550;48.650;8.774;2023-07-24T06:33:30;6.53;;;5.67;;
12970;SDS011;6550;48.650;8.774;2023-07-24T06:36:02;6.30;;;5.20;;
12970;SDS011;6550;48.650;8.774;2023-07-24T06:38:29;7.27;;;5.50;;
12970;SDS011;6550;48.650;8.774;2023-07-24T06:40:55;7.37;;;5.50;;
12970;SDS011;6550;48.650;8.774;2023-07-24T06:43:22;8.27;;;5.87;;
12970;SDS011;6550;48.650;8.774;2023-07-24T06:45:52;12.63;;;6.00;;
12970;SDS011;6550;48.650;8.774;2023-07-24T06:48:18;8.77;;;5.53;;
12970;SDS011;6550;48.650;8.774;2023-07-24T06:50:46;8.90;;;6.20;;
12970;SDS011;6550;48.650;8.774;2023-07-24T06:53:13;11.83;;;6.30;;
12970;SDS011;6550;48.650;8.774;2023-07-24T06:55:41;8.37;;;5.47;;
12970;SDS011;6550;48.650;8.774;2023-07-24T06:58:12;7.87;;;6.10;;
12970;SDS011;6550;48.650;8.774;2023-07-24T07:00:39;7.73;;;6.27;;
12970;SDS011;6550;48.650;8.774;2023-07-24T07:03:06;9.43;;;6.13;;
12970;SDS011;6550;48.650;8.774;2023-07-24T07:05:33;7.10;;;5.83;;
12970;SDS011;6550;48.650;8.774;2023-07-24T07:08:00;10.43;;;6.00;;
12970;SDS011;6550;48.650;8.774;2023-07-24T07:10:32;9.10;;;5.77;;
12970;SDS011;6550;48.650;8.774;2023-07-24T07:13:01;13.43;;;6.50;;
12970;SDS011;6550;48.650;8.774;2023-07-24T07:15:28;8.47;;;6.40;;
12970;SDS011;6550;48.650;8.774;2023-07-24T07:17:55;8.10;;;6.07;;
12970;SDS011;6550;48.650;8.774;2023-07-24T07:20:24;12.83;;;6.47;;
12970;SDS011;6550;48.650;8.774;2023-07-24T07:22:51;9.27;;;5.60;;
12970;SDS011;6550;48.650;8.774;2023-07-24T07:25:20;10.57;;;6.60;;
12970;SDS011;6550;48.650;8.774;2023-07-24T07:27:49;8.27;;;6.70;;
12970;SDS011;6550;48.650;8.774;2023-07-24T07:30:16;7.57;;;6.37;;
12970;SDS011;6550;48.650;8.774;2023-07-24T07:32:43;12.20;;;6.13;;
12970;SDS011;6550;48.650;8.774;2023-07-24T07:35:10;6.47;;;5.63;;
12970;SDS011;6550;48.650;8.774;2023-07-24T07:37:39;9.50;;;6.10;;
12970;SDS011;6550;48.650;8.774;2023-07-24T07:40:08;7.97;;;5.97;;
12970;SDS011;6550;48.650;8.774;2023-07-24T07:42:38;6.93;;;6.10;;
12970;SDS011;6550;48.650;8.774;2023-07-24T07:45:08;8.80;;;6.43;;
12970;SDS011;6550;48.650;8.774;2023-07-24T07:47:35;9.40;;;5.80;;
12970;SDS011;6550;48.650;8.774;2023-07-24T07:50:02;8.10;;;5.70;;
12970;SDS011;6550;48.650;8.774;2023-07-24T07:52:32;8.13;;;6.00;;
12970;SDS011;6550;48.650;8.774;2023-07-24T07:55:03;8.77;;;6.60;;
12970;SDS011;6550;48.650;8.774;2023-07-24T07:57:35;10.30;;;6.82;;
12970;SDS011;6550;48.650;8.774;2023-07-24T08:00:05;13.70;;;6.70;;
12970;SDS011;6550;48.650;8.774;2023-07-24T08:02:32;8.53;;;6.27;;
12970;SDS011;6550;48.650;8.774;2023-07-24T08:05:00;10.20;;;6.93;;
12970;SDS011;6550;48.650;8.774;2023-07-24T08:07:38;11.43;;;6.17;;
12970;SDS011;6550;48.650;8.774;2023-07-24T08:10:05;8.03;;;6.40;;
12970;SDS011;6550;48.650;8.774;2023-07-24T08:12:32;9.63;;;6.17;;
12970;SDS011;6550;48.650;8.774;2023-07-24T08:14:59;8.27;;;6.13;;
12970;SDS011;6550;48.650;8.774;2023-07-24T08:17:26;10.32;;;6.55;;
12970;SDS011;6550;48.650;8.774;2023-07-24T08:19:53;8.13;;;6.03;;
12970;SDS011;6550;48.650;8.774;2023-07-24T08:22:20;6.67;;;5.87;;
12970;SDS011;6550;48.650;8.774;2023-07-24T08:24:48;7.70;;;5.90;;
12970;SDS011;6550;48.650;8.774;2023-07-24T08:27:19;8.23;;;6.00;;
12970;SDS011;6550;48.650;8.774;2023-07-24T08:29:46;7.43;;;6.10;;
12970;SDS011;6550;48.650;8.774;2023-07-24T08:32:16;8.47;;;5.80;;
12970;SDS011;6550;48.650;8.774;2023-07-24T08:34:43;10.10;;;6.03;;
12970;SDS011;6550;48.650;8.774;2023-07-24T08:37:12;9.07;;;5.73;;
12970;SDS011;6550;48.650;8.774;2023-07-24T08:39:41;9.33;;;5.77;;
12970;SDS011;6550;48.650;8.774;2023-07-24T08:42:14;8.00;;;5.53;;
12970;SDS011;6550;48.650;8.774;2023-07-24T08:44:41;11.83;;;5.47;;
12970;SDS011;6550;48.650;8.774;2023-07-24T08:47:09;7.90;;;5.00;;
12970;SDS011;6550;48.650;8.774;2023-07-24T08:49:38;9.20;;;5.47;;
12970;SDS011;6550;48.650;8.774;2023-07-24T08:52:08;7.67;;;4.73;;
12970;SDS011;6550;48.650;8.774;2023-07-24T08:54:44;9.10;;;5.03;;
12970;SDS011;6550;48.650;8.774;2023-07-24T08:57:15;5.07;;;4.20;;
12970;SDS011;6550;48.650;8.774;2023-07-24T08:59:42;5.73;;;4.10;;
12970;SDS011;6550;48.650;8.774;2023-07-24T09:02:09;6.97;;;4.40;;
12970;SDS011;6550;48.650;8.774;2023-07-24T09:04:41;6.53;;;4.30;;
12970;SDS011;6550;48.650;8.774;2023-07-24T09:07:07;5.17;;;4.00;;
12970;SDS011;6550;48.650;8.774;2023-07-24T09:09:34;6.23;;;4.40;;
12970;SDS011;6550;48.650;8.774;2023-07-24T09:12:05;4.63;;;3.47;;
12970;SDS011;6550;48.650;8.774;2023-07-24T09:14:35;9.13;;;4.20;;
12970;SDS011;6550;48.650;8.774;2023-07-24T09:17:08;4.97;;;4.27;;
12970;SDS011;6550;48.650;8.774;2023-07-24T09:19:38;4.60;;;4.20;;
12970;SDS011;6550;48.650;8.774;2023-07-24T09:22:09;6.82;;;4.28;;
12970;SDS011;6550;48.650;8.774;2023-07-24T09:24:58;5.20;;;3.90;;
12970;SDS011;6550;48.650;8.774;2023-07-24T09:27:26;7.70;;;4.47;;
12970;SDS011;6550;48.650;8.774;2023-07-24T09:29:56;6.27;;;4.47;;
12970;SDS011;6550;48.650;8.774;2023-07-24T09:32:25;5.37;;;3.93;;
12970;SDS011;6550;48.650;8.774;2023-07-24T09:34:53;6.60;;;4.33;;
12970;SDS011;6550;48.650;8.774;2023-07-24T09:37:44;5.53;;;4.10;;
12970;SDS011;6550;48.650;8.774;2023-07-24T09:40:10;7.33;;;4.20;;
12970;SDS011;6550;48.650;8.774;2023-07-24T09:42:38;6.80;;;4.00;;
12970;SDS011;6550;48.650;8.774;2023-07-24T09:45:26;6.97;;;3.87;;
12970;SDS011;6550;48.650;8.774;2023-07-24T09:47:54;6.70;;;3.90;;
12970;SDS011;6550;48.650;8.774;2023-07-24T09:50:33;5.70;;;4.00;;
12970;SDS011;6550;48.650;8.774;2023-07-24T09:53:00;5.27;;;4.10;;
12970;SDS011;6550;48.650;8.774;2023-07-24T09:55:32;5.88;;;4.10;;
12970;SDS011;6550;48.650;8.774;2023-07-24T09:58:14;5.73;;;4.23;;
12970;SDS011;6550;48.650;8.774;2023-07-24T10:00:44;6.30;;;4.10;;
12970;SDS011;6550;48.650;8.774;2023-07-24T10:03:14;6.20;;;3.83;;
12970;SDS011;6550;48.650;8.774;2023-07-24T10:05:41;8.23;;;4.50;;
12970;SDS011;6550;48.650;8.774;2023-07-24T10:08:17;8.90;;;4.40;;
12970;SDS011;6550;48.650;8.774;2023-07-24T10:10:49;4.93;;;4.00;;
12970;SDS011;6550;48.650;8.774;2023-07-24T10:13:18;4.60;;;3.47;;
12970;SDS011;6550;48.650;8.774;2023-07-24T10:15:47;5.63;;;4.73;;
12970;SDS011;6550;48.650;8.774;2023-07-24T10:18:15;4.43;;;3.87;;
12970;SDS011;6550;48.650;8.774;2023-07-24T10:20:46;8.73;;;4.60;;
12970;SDS011;6550;48.650;8.774;2023-07-24T10:23:15;8.53;;;4.23;;
12970;SDS011;6550;48.650;8.774;2023-07-24T10:25:49;5.80;;;4.10;;
12970;SDS011;6550;48.650;8.774;2023-07-24T10:28:18;9.02;;;4.65;;
12970;SDS011;6550;48.650;8.774;2023-07-24T10:30:54;6.63;;;4.53;;
12970;SDS011;6550;48.650;8.774;2023-07-24T10:33:22;7.20;;;4.77;;
12970;SDS011;6550;48.650;8.774;2023-07-24T10:35:52;8.27;;;4.90;;
12970;SDS011;6550;48.650;8.774;2023-07-24T10:38:31;8.18;;;4.75;;
12970;SDS011;6550;48.650;8.774;2023-07-24T10:41:08;9.37;;;5.00;;
12970;SDS011;6550;48.650;8.774;2023-07-24T10:46:19;7.30;;;4.23;;
12970;SDS011;6550;48.650;8.774;2023-07-24T10:48:47;11.13;;;5.20;;
12970;SDS011;6550;48.650;8.774;2023-07-24T10:51:16;8.23;;;5.00;;
12970;SDS011;6550;48.650;8.774;2023-07-24T10:53:45;7.70;;;4.90;;
12970;SDS011;6550;48.650;8.774;2023-07-24T10:56:13;9.13;;;4.50;;
12970;SDS011;6550;48.650;8.774;2023-07-24T10:58:43;6.87;;;4.83;;
12970;SDS011;6550;48.650;8.774;2023-07-24T11:01:10;6.25;;;4.90;;
12970;SDS011;6550;48.650;8.774;2023-07-24T11:03:41;7.10;;;4.67;;
12970;SDS011;6550;48.650;8.774;2023-07-24T11:06:15;6.57;;;4.50;;
12970;SDS011;6550;48.650;8.774;2023-07-24T11:08:52;5.70;;;4.17;;
12970;SDS011;6550;48.650;8.774;2023-07-24T11:11:27;7.28;;;4.78;;
12970;SDS011;6550;48.650;8.774;2023-07-24T11:13:56;6.23;;;4.10;;
12970;SDS011;6550;48.650;8.774;2023-07-24T11:16:26;6.57;;;4.37;;
12970;SDS011;6550;48.650;8.774;2023-07-24T11:18:53;6.57;;;4.13;;
12970;SDS011;6550;48.650;8.774;2023-07-24T11:21:22;5.50;;;3.97;;
12970;SDS011;6550;48.650;8.774;2023-07-24T11:23:53;4.73;;;4.20;;
12970;SDS011;6550;48.650;8.774;2023-07-24T11:26:21;5.33;;;3.93;;
12970;SDS011;6550;48.650;8.774;2023-07-24T11:28:51;5.43;;;3.70;;
12970;SDS011;6550;48.650;8.774;2023-07-24T11:31:19;6.15;;;3.55;;
12970;SDS011;6550;48.650;8.774;2023-07-24T11:33:49;4.90;;;3.97;;
12970;SDS011;6550;48.650;8.774;2023-07-24T11:36:17;4.30;;;3.70;;
12970;SDS011;6550;48.650;8.774;2023-07-24T11:38:47;5.75;;;4.60;;
12970;SDS011;6550;48.650;8.774;2023-07-24T11:41:17;3.60;;;3.10;;
12970;SDS011;6550;48.650;8.774;2023-07-24T11:43:47;4.67;;;3.60;;
12970;SDS011;6550;48.650;8.774;2023-07-24T11:46:27;5.67;;;3.97;;
12970;SDS011;6550;48.650;8.774;2023-07-24T11:49:00;4.90;;;3.93;;
12970;SDS011;6550;48.650;8.774;2023-07-24T11:51:27;6.20;;;3.90;;
12970;SDS011;6550;48.650;8.774;2023-07-24T11:54:08;5.63;;;4.07;;
12970;SDS011;6550;48.650;8.774;2023-07-24T11:56:38;4.72;;;4.03;;
12970;SDS011;6550;48.650;8.774;2023-07-24T11:59:14;4.47;;;3.90;;
12970;SDS011;6550;48.650;8.774;2023-07-24T12:01:45;5.77;;;4.00;;
12970;SDS011;6550;48.650;8.774;2023-07-24T12:04:14;5.23;;;4.03;;
12970;SDS011;6550;48.650;8.774;2023-07-24T12:06:42;5.28;;;4.35;;
12970;SDS011;6550;48.650;8.774;2023-07-24T12:09:11;4.70;;;3.60;;
12970;SDS011;6550;48.650;8.774;2023-07-24T12:11:42;5.33;;;3.70;;
12970;SDS011;6550;48.650;8.774;2023-07-24T12:14:12;5.60;;;3.90;;
12970;SDS011;6550;48.650;8.774;2023-07-24T12:16:40;4.30;;;3.67;;
12970;SDS011;6550;48.650;8.774;2023-07-24T12:19:07;5.83;;;3.97;;
12970;SDS011;6550;48.650;8.774;2023-07-24T12:21:34;7.07;;;3.80;;
12970;SDS011;6550;48.650;8.774;2023-07-24T12:24:00;4.80;;;4.23;;
12970;SDS011;6550;48.650;8.774;2023-07-24T12:26:28;5.97;;;4.23;;
12970;SDS011;6550;48.650;8.774;2023-07-24T12:28:54;6.70;;;4.30;;
12970;SDS011;6550;48.650;8.774;2023-07-24T12:31:21;4.83;;;3.67;;
12970;SDS011;6550;48.650;8.774;2023-07-24T12:33:48;6.63;;;4.20;;
12970;SDS011;6550;48.650;8.774;2023-07-24T12:36:15;6.70;;;3.80;;
12970;SDS011;6550;48.650;8.774;2023-07-24T12:38:44;5.60;;;4.00;;
12970;SDS011;6550;48.650;8.774;2023-07-24T12:41:13;7.13;;;3.50;;
12970;SDS011;6550;48.650;8.774;2023-07-24T12:43:40;4.83;;;3.60;;
12970;SDS011;6550;48.650;8.774;2023-07-24T12:46:09;3.87;;;3.47;;
12970;SDS011;6550;48.650;8.774;2023-07-24T12:48:36;3.50;;;3.20;;
12970;SDS011;6550;48.650;8.774;2023-07-24T12:51:02;4.37;;;3.97;;
12970;SDS011;6550;48.650;8.774;2023-07-24T12:53:29;4.30;;;3.73;;
12970;SDS011;6550;48.650;8.774;2023-07-24T12:56:14;4.33;;;3.47;;
12970;SDS011;6550;48.650;8.774;2023-07-24T12:58:41;4.80;;;3.70;;
12970;SDS011;6550;48.650;8.774;2023-07-24T13:01:08;5.33;;;3.50;;
12970;SDS011;6550;48.650;8.774;2023-07-24T13:03:35;3.90;;;3.47;;
12970;SDS011;6550;48.650;8.774;2023-07-24T13:06:02;4.43;;;3.57;;
12970;SDS011;6550;48.650;8.774;2023-07-24T13:08:31;5.60;;;3.67;;
12970;SDS011;6550;48.650;8.774;2023-07-24T13:11:00;4.40;;;3.10;;
12970;SDS011;6550;48.650;8.774;2023-07-24T13:13:29;4.87;;;3.73;;
12970;SDS011;6550;48.650;8.774;2023-07-24T13:15:57;4.20;;;3.70;;
12970;SDS011;6550;48.650;8.774;2023-07-24T13:18:25;3.93;;;3.53;;
12970;SDS011;6550;48.650;8.774;2023-07-24T13:20:54;4.57;;;3.70;;
12970;SDS011;6550;48.650;8.774;2023-07-24T13:23:23;5.40;;;3.77;;
12970;SDS011;6550;48.650;8.774;2023-07-24T13:25:53;4.53;;;3.30;;
12970;SDS011;6550;48.650;8.774;2023-07-24T13:28:20;4.07;;;3.67;;
12970;SDS011;6550;48.650;8.774;2023-07-24T13:30:47;3.67;;;3.30;;
12970;SDS011;6550;48.650;8.774;2023-07-24T13:33:16;6.07;;;3.60;;
12970;SDS011;6550;48.650;8.774;2023-07-24T13:35:45;6.57;;;3.73;;
12970;SDS011;6550;48.650;8.774;2023-07-24T13:38:12;4.10;;;3.70;;
12970;SDS011;6550;48.650;8.774;2023-07-24T13:40:39;6.53;;;4.00;;
12970;SDS011;6550;48.650;8.774;2023-07-24T13:43:06;6.80;;;3.80;;
12970;SDS011;6550;48.650;8.774;2023-07-24T13:45:35;3.83;;;3.30;;
12970;SDS011;6550;48.650;8.774;2023-07-24T13:48:02;7.70;;;3.53;;
12970;SDS011;6550;48.650;8.774;2023-07-24T13:50:34;6.73;;;3.57;;
12970;SDS011;6550;48.650;8.774;2023-07-24T13:53:03;5.07;;;3.77;;
12970;SDS011;6550;48.650;8.774;2023-07-24T13:55:30;7.50;;;4.13;;
12970;SDS011;6550;48.650;8.774;2023-07-24T13:57:56;5.83;;;3.67;;
12970;SDS011;6550;48.650;8.774;2023-07-24T14:00:23;5.80;;;4.37;;
12970;SDS011;6550;48.650;8.774;2023-07-24T14:02:50;8.00;;;4.20;;
12970;SDS011;6550;48.650;8.774;2023-07-24T14:05:18;3.67;;;3.37;;
12970;SDS011;6550;48.650;8.774;2023-07-24T14:07:45;4.83;;;3.60;;
12970;SDS011;6550;48.650;8.774;2023-07-24T14:10:12;3.70;;;3.10;;
12970;SDS011;6550;48.650;8.774;2023-07-24T14:12:38;7.43;;;3.60;;
12970;SDS011;6550;48.650;8.774;2023-07-24T14:15:05;3.37;;;3.07;;
12970;SDS011;6550;48.650;8.774;2023-07-24T14:17:32;5.67;;;3.27;;
12970;SDS011;6550;48.650;8.774;2023-07-24T14:20:02;6.07;;;3.33;;
12970;SDS011;6550;48.650;8.774;2023-07-24T14:22:29;5.07;;;3.37;;
12970;SDS011;6550;48.650;8.774;2023-07-24T14:24:56;3.33;;;3.03;;
12970;SDS011;6550;48.650;8.774;2023-07-24T14:27:23;7.13;;;3.13;;
12970;SDS011;6550;48.650;8.774;2023-07-24T14:29:50;3.53;;;3.13;;
12970;SDS011;6550;48.650;8.774;2023-07-24T14:32:19;3.40;;;3.10;;
12970;SDS011;6550;48.650;8.774;2023-07-24T14:34:50;2.80;;;2.60;;
12970;SDS011;6550;48.650;8.774;2023-07-24T14:37:18;3.87;;;3.20;;
12970;SDS011;6550;48.650;8.774;2023-07-24T14:39:49;3.53;;;3.23;;
12970;SDS011;6550;48.650;8.774;2023-07-24T14:42:18;2.97;;;2.70;;
12970;SDS011;6550;48.650;8.774;2023-07-24T14:44:48;4.67;;;3.07;;
12970;SDS011;6550;48.650;8.774;2023-07-24T14:47:17;3.87;;;2.90;;
12970;SDS011;6550;48.650;8.774;2023-07-24T14:49:43;3.47;;;3.17;;
12970;SDS011;6550;48.650;8.774;2023-07-24T14:52:10;3.00;;;2.70;;
12970;SDS011;6550;48.650;8.774;2023-07-24T14:54:39;3.33;;;3.03;;
12970;SDS011;6550;48.650;8.774;2023-07-24T14:57:08;3.77;;;2.87;;
12970;SDS011;6550;48.650;8.774;2023-07-24T14:59:50;4.00;;;3.00;;
12970;SDS011;6550;48.650;8.774;2023-07-24T15:02:17;4.20;;;2.87;;
12970;SDS011;6550;48.650;8.774;2023-07-24T15:04:45;4.73;;;2.53;;
12970;SDS011;6550;48.650;8.774;2023-07-24T15:07:14;3.23;;;2.93;;
12970;SDS011;6550;48.650;8.774;2023-07-24T15:09:41;3.33;;;2.77;;
12970;SDS011;6550;48.650;8.774;2023-07-24T15:12:08;4.53;;;3.00;;
12970;SDS011;6550;48.650;8.774;2023-07-24T15:14:38;3.40;;;2.60;;